sensor_id;sensor_type;location;lat;lon;timestamp;pressure;altitude;pressure_sealevel;temperature;humidity
27980;BME280;15315;50.836;4.430;2024-01-15T00:09:29;100089.41;;;8.43;58.49
27980;BME280;15315;50.836;4.430;2024-01-15T00:19:30;100072.69;;;8.14;59.13
27980;BME280;15315;50.836;4.430;2024-01-15T00:29:32;100069.66;;;8.80;58.49
27980;BME280;15315;50.836;4.430;2024-01-15T00:39:33;100061.56;;;8.56;58.69
27980;BME280;15315;50.836;4.430;2024-01-15T00:49:33;100058.16;;;8.78;59.76
27980;BME280;15315;50.836;4.430;2024-01-15T00:59:34;100056.44;;;9.37;57.81
27980;BME280;15315;50.836;4.430;2024-01-15T01:09:35;100056.84;;;9.44;58.03
27980;BME280;15315;50.836;4.430;2024-01-15T01:19:35;100052.78;;;9.14;59.19
27980;BME280;15315;50.836;4.430;2024-01-15T01:29:35;100044.09;;;8.98;58.58
27980;BME280;15315;50.836;4.430;2024-01-15T01:39:36;100057.13;;;9.28;59.16
27980;BME280;15315;50.836;4.430;2024-01-15T01:49:37;100041.94;;;9.62;57.71
27980;BME280;15315;50.836;4.430;2024-01-15T01:59:38;100045.16;;;9.08;59.20
27980;BME280;15315;50.836;4.430;2024-01-15T02:09:39;100029.06;;;8.96;59.66
27980;BME280;15315;50.836;4.430;2024-01-15T02:19:40;100030.91;;;9.19;59.16
27980;BME280;15315;50.836;4.430;2024-01-15T02:29:41;100028.16;;;9.32;58.94
27980;BME280;15315;50.836;4.430;2024-01-15T02:39:41;100027.03;;;9.58;59.11
27980;BME280;15315;50.836;4.430;2024-01-15T02:49:41;100022.47;;;9.36;58.97
27980;BME280;15315;50.836;4.430;2024-01-15T02:59:43;100015.34;;;9.35;58.99
27980;BME280;15315;50.836;4.430;2024-01-15T03:09:43;100019.06;;;8.74;59.90
27980;BME280;15315;50.836;4.430;2024-01-15T03:19:44;100002.19;;;9.54;58.80
27980;BME280;15315;50.836;4.430;2024-01-15T03:29:44;99987.59;;;9.35;58.85
27980;BME280;15315;50.836;4.430;2024-01-15T03:39:45;99978.38;;;9.15;59.41
27980;BME280;15315;50.836;4.430;2024-01-15T03:49:45;99987.44;;;8.78;60.36
27980;BME280;15315;50.836;4.430;2024-01-15T03:59:46;99978.06;;;9.31;58.56
27980;BME280;15315;50.836;4.430;2024-01-15T04:09:47;99972.75;;;8.71;60.24
27980;BME280;15315;50.836;4.430;2024-01-15T04:19:47;99954.06;;;8.69;60.12
27980;BME280;15315;50.836;4.430;2024-01-15T04:29:48;99946.31;;;8.88;58.66
27980;BME280;15315;50.836;4.430;2024-01-15T04:39:48;99954.44;;;8.52;61.10
27980;BME280;15315;50.836;4.430;2024-01-15T04:49:49;99941.38;;;9.06;59.83
27980;BME280;15315;50.836;4.430;2024-01-15T04:59:49;99931.97;;;9.00;59.68
27980;BME280;15315;50.836;4.430;2024-01-15T05:09:50;99943.81;;;9.33;59.19
27980;BME280;15315;50.836;4.430;2024-01-15T05:19:51;99929.56;;;9.08;59.76
27980;BME280;15315;50.836;4.430;2024-01-15T05:29:51;99927.06;;;8.47;62.80
27980;BME280;15315;50.836;4.430;2024-01-15T05:39:51;99924.50;;;8.69;62.75
27980;BME280;15315;50.836;4.430;2024-01-15T05:49:52;99922.25;;;8.39;63.23
27980;BME280;15315;50.836;4.430;2024-01-15T05:59:54;99910.22;;;8.69;61.87
27980;BME280;15315;50.836;4.430;2024-01-15T06:09:54;99902.16;;;8.69;60.03
27980;BME280;15315;50.836;4.430;2024-01-15T06:19:57;99904.63;;;8.48;60.17
27980;BME280;15315;50.836;4.430;2024-01-15T06:29:57;99905.69;;;8.69;59.20
27980;BME280;15315;50.836;4.430;2024-01-15T06:39:58;99901.78;;;8.02;61.17
27980;BME280;15315;50.836;4.430;2024-01-15T06:49:58;99883.88;;;8.50;59.85
27980;BME280;15315;50.836;4.430;2024-01-15T06:59:59;99897.91;;;8.30;60.50
27980;BME280;15315;50.836;4.430;2024-01-15T07:09:59;99887.63;;;8.47;60.15
27980;BME280;15315;50.836;4.430;2024-01-15T07:20:00;99900.88;;;8.14;60.21
27980;BME280;15315;50.836;4.430;2024-01-15T07:30:00;99905.19;;;8.40;58.95
27980;BME280;15315;50.836;4.430;2024-01-15T07:40:01;99901.31;;;8.21;58.55
27980;BME280;15315;50.836;4.430;2024-01-15T07:50:01;99907.41;;;8.70;57.77
27980;BME280;15315;50.836;4.430;2024-01-15T08:00:03;99921.78;;;7.85;61.55
27980;BME280;15315;50.836;4.430;2024-01-15T08:10:05;99923.13;;;8.40;60.48
27980;BME280;15315;50.836;4.430;2024-01-15T08:20:06;99930.16;;;8.77;58.30
27980;BME280;15315;50.836;4.430;2024-01-15T08:30:07;99961.50;;;8.29;57.92
27980;BME280;15315;50.836;4.430;2024-01-15T08:40:08;99953.06;;;8.70;57.66
27980;BME280;15315;50.836;4.430;2024-01-15T08:50:09;99959.97;;;8.85;57.52
27980;BME280;15315;50.836;4.430;2024-01-15T09:00:12;99976.47;;;8.44;55.10
27980;BME280;15315;50.836;4.430;2024-01-15T09:10:13;99960.81;;;8.75;54.24
27980;BME280;15315;50.836;4.430;2024-01-15T09:20:14;99972.63;;;8.12;55.04
27980;BME280;15315;50.836;4.430;2024-01-15T09:30:14;99971.75;;;8.12;55.20
27980;BME280;15315;50.836;4.430;2024-01-15T09:40:15;99974.94;;;8.17;54.65
27980;BME280;15315;50.836;4.430;2024-01-15T09:50:16;99988.59;;;7.51;54.59
27980;BME280;15315;50.836;4.430;2024-01-15T10:00:18;99997.34;;;7.92;53.14
27980;BME280;15315;50.836;4.430;2024-01-15T10:10:19;99994.28;;;9.18;51.04
27980;BME280;15315;50.836;4.430;2024-01-15T10:20:20;100005.25;;;8.55;51.83
27980;BME280;15315;50.836;4.430;2024-01-15T10:30:24;100013.91;;;8.71;51.38
27980;BME280;15315;50.836;4.430;2024-01-15T10:40:24;100006.75;;;8.83;51.01
27980;BME280;15315;50.836;4.430;2024-01-15T10:50:25;100021.22;;;8.33;52.68
27980;BME280;15315;50.836;4.430;2024-01-15T11:00:26;100018.31;;;9.43;51.03
27980;BME280;15315;50.836;4.430;2024-01-15T11:21:23;100010.59;;;9.39;50.05
27980;BME280;15315;50.836;4.430;2024-01-15T11:31:28;100018.19;;;8.74;50.01
27980;BME280;15315;50.836;4.430;2024-01-15T11:41:29;100016.53;;;8.60;49.98
27980;BME280;15315;50.836;4.430;2024-01-15T11:51:29;100009.69;;;9.27;49.40
27980;BME280;15315;50.836;4.430;2024-01-15T12:01:30;100029.94;;;8.24;48.74
27980;BME280;15315;50.836;4.430;2024-01-15T12:11:31;100035.72;;;9.03;48.41
27980;BME280;15315;50.836;4.430;2024-01-15T12:21:33;100060.75;;;8.80;48.65
27980;BME280;15315;50.836;4.430;2024-01-15T12:31:34;100046.28;;;8.93;48.76
27980;BME280;15315;50.836;4.430;2024-01-15T12:41:35;100039.19;;;9.74;47.43
27980;BME280;15315;50.836;4.430;2024-01-15T12:51:35;100056.78;;;9.67;49.94
27980;BME280;15315;50.836;4.430;2024-01-15T13:01:37;100065.84;;;8.72;53.49
27980;BME280;15315;50.836;4.430;2024-01-15T13:11:37;100052.53;;;8.94;52.71
27980;BME280;15315;50.836;4.430;2024-01-15T13:21:40;100059.97;;;8.54;54.92
27980;BME280;15315;50.836;4.430;2024-01-15T13:31:40;100071.38;;;8.32;55.52
27980;BME280;15315;50.836;4.430;2024-01-15T13:41:40;100073.41;;;8.54;53.03
27980;BME280;15315;50.836;4.430;2024-01-15T13:51:41;100075.25;;;8.90;52.75
27980;BME280;15315;50.836;4.430;2024-01-15T14:01:43;100098.50;;;9.38;52.27
27980;BME280;15315;50.836;4.430;2024-01-15T14:11:43;100110.16;;;8.28;62.60
27980;BME280;15315;50.836;4.430;2024-01-15T14:21:43;100125.59;;;8.50;63.33
27980;BME280;15315;50.836;4.430;2024-01-15T14:31:44;100124.81;;;8.73;59.92
27980;BME280;15315;50.836;4.430;2024-01-15T14:41:44;100168.31;;;7.10;67.33
27980;BME280;15315;50.836;4.430;2024-01-15T14:51:44;100182.53;;;6.41;70.94
27980;BME280;15315;50.836;4.430;2024-01-15T15:01:46;100176.88;;;6.88;69.32
27980;BME280;15315;50.836;4.430;2024-01-15T15:11:46;100201.75;;;6.76;68.14
27980;BME280;15315;50.836;4.430;2024-01-15T15:21:47;100206.31;;;7.84;65.45
27980;BME280;15315;50.836;4.430;2024-01-15T15:31:48;100198.72;;;7.23;66.03
27980;BME280;15315;50.836;4.430;2024-01-15T15:41:49;100241.63;;;7.23;65.85
27980;BME280;15315;50.836;4.430;2024-01-15T15:51:49;100246.94;;;8.05;63.61
27980;BME280;15315;50.836;4.430;2024-01-15T16:01:51;100258.44;;;8.07;64.12
27980;BME280;15315;50.836;4.430;2024-01-15T16:11:52;100275.13;;;7.02;67.30
27980;BME280;15315;50.836;4.430;2024-01-15T16:21:54;100284.50;;;7.23;68.36
27980;BME280;15315;50.836;4.430;2024-01-15T16:31:54;100298.09;;;7.20;66.54
27980;BME280;15315;50.836;4.430;2024-01-15T16:41:54;100313.47;;;7.73;64.08
27980;BME280;15315;50.836;4.430;2024-01-15T16:51:56;100326.72;;;8.42;62.60
27980;BME280;15315;50.836;4.430;2024-01-15T17:01:56;100339.66;;;6.55;69.26
27980;BME280;15315;50.836;4.430;2024-01-15T17:11:57;100336.28;;;7.52;67.66
27980;BME280;15315;50.836;4.430;2024-01-15T17:21:57;100341.84;;;7.20;69.34
27980;BME280;15315;50.836;4.430;2024-01-15T17:31:58;100348.47;;;7.29;68.13
27980;BME280;15315;50.836;4.430;2024-01-15T17:41:58;100348.19;;;8.03;66.31
27980;BME280;15315;50.836;4.430;2024-01-15T17:51:58;100357.94;;;8.04;65.79
27980;BME280;15315;50.836;4.430;2024-01-15T18:02:00;100377.34;;;8.48;63.69
27980;BME280;15315;50.836;4.430;2024-01-15T18:12:00;100402.31;;;8.23;62.15
27980;BME280;15315;50.836;4.430;2024-01-15T18:22:01;100400.66;;;8.47;61.76
27980;BME280;15315;50.836;4.430;2024-01-15T18:32:03;100412.63;;;8.29;61.65
27980;BME280;15315;50.836;4.430;2024-01-15T18:42:03;100417.09;;;8.70;60.13
27980;BME280;15315;50.836;4.430;2024-01-15T18:52:05;100421.72;;;8.41;58.93
27980;BME280;15315;50.836;4.430;2024-01-15T19:02:05;100430.63;;;8.41;57.72
27980;BME280;15315;50.836;4.430;2024-01-15T19:12:07;100435.75;;;8.58;57.37
27980;BME280;15315;50.836;4.430;2024-01-15T19:22:07;100453.44;;;8.08;57.88
27980;BME280;15315;50.836;4.430;2024-01-15T19:32:08;100454.59;;;8.71;56.21
27980;BME280;15315;50.836;4.430;2024-01-15T19:42:11;100461.50;;;8.48;56.09
27980;BME280;15315;50.836;4.430;2024-01-15T19:52:14;100465.31;;;8.58;55.96
27980;BME280;15315;50.836;4.430;2024-01-15T20:02:15;100474.16;;;8.73;54.82
27980;BME280;15315;50.836;4.430;2024-01-15T20:12:15;100482.06;;;8.89;55.09
27980;BME280;15315;50.836;4.430;2024-01-15T20:22:16;100498.78;;;8.12;55.07
27980;BME280;15315;50.836;4.430;2024-01-15T20:32:18;100507.59;;;8.14;56.22
27980;BME280;15315;50.836;4.430;2024-01-15T20:42:18;100527.41;;;8.81;55.17
27980;BME280;15315;50.836;4.430;2024-01-15T20:52:19;100512.44;;;8.50;54.83
27980;BME280;15315;50.836;4.430;2024-01-15T21:02:20;100518.78;;;8.76;54.26
27980;BME280;15315;50.836;4.430;2024-01-15T21:12:21;100539.50;;;7.32;55.80
27980;BME280;15315;50.836;4.430;2024-01-15T21:22:22;100545.84;;;7.75;56.50
27980;BME280;15315;50.836;4.430;2024-01-15T21:32:22;100531.84;;;8.27;55.68
27980;BME280;15315;50.836;4.430;2024-01-15T21:42:23;100543.41;;;8.70;54.63
27980;BME280;15315;50.836;4.430;2024-01-15T21:52:23;100544.22;;;7.87;55.58
27980;BME280;15315;50.836;4.430;2024-01-15T22:02:25;100540.78;;;7.85;55.68
27980;BME280;15315;50.836;4.430;2024-01-15T22:12:25;100535.84;;;8.48;54.40
27980;BME280;15315;50.836;4.430;2024-01-15T22:22:25;100541.25;;;9.15;53.10
27980;BME280;15315;50.836;4.430;2024-01-15T22:32:27;100558.13;;;8.22;54.53
27980;BME280;15315;50.836;4.430;2024-01-15T22:42:27;100562.28;;;8.68;54.03
27980;BME280;15315;50.836;4.430;2024-01-15T22:52:28;100570.19;;;8.57;54.13
27980;BME280;15315;50.836;4.430;2024-01-15T23:02:29;100582.31;;;8.08;54.22
27980;BME280;15315;50.836;4.430;2024-01-15T23:12:30;100592.47;;;8.17;53.97
27980;BME280;15315;50.836;4.430;2024-01-15T23:22:30;100600.41;;;8.75;53.69
27980;BME280;15315;50.836;4.430;2024-01-15T23:32:31;100607.03;;;8.55;54.08
27980;BME280;15315;50.836;4.430;2024-01-15T23:42:31;100610.97;;;8.07;54.53
27980;BME280;15315;50.836;4.430;2024-01-15T23:52:31;100608.88;;;8.40;53.50
